Time;durP1;ratioP1;P1;durP2;ratioP2;P2;SDS_P1;SDS_P2;PMS_P1;PMS_P2;Temp;Humidity;BMP_temperature;BMP_pressure;BME280_temperature;BME280_humidity;BME280_pressure;Samples;Min_cycle;Max_cycle;Signal;HPM_P1;HPM_P2
2022/04/10 00:00:05;;;;;;;13.50;2.65;;;2.30;99.90;;;;;;5012261;28;20045;-86
2022/04/10 00:02:34;;;;;;;11.70;2.50;;;2.20;99.90;;;;;;5010643;28;20112;-87
2022/04/10 00:05:03;;;;;;;17.98;3.20;;;2.10;99.90;;;;;;5027774;28;20053;-89
2022/04/10 00:07:36;;;;;;;23.13;3.40;;;2.10;99.90;;;;;;5029424;28;20045;-87
2022/04/10 00:10:05;;;;;;;17.38;3.25;;;2.10;99.90;;;;;;5030089;28;20088;-87
2022/04/10 00:12:35;;;;;;;18.17;4.95;;;2.10;99.90;;;;;;5014626;28;20491;-86
2022/04/10 00:15:04;;;;;;;44.33;13.95;;;2.20;99.90;;;;;;5014580;28;20045;-86
2022/04/10 00:17:37;;;;;;;46.63;14.70;;;2.10;99.90;;;;;;5031106;28;20056;-86
2022/04/10 00:20:07;;;;;;;41.20;15.63;;;2.20;99.90;;;;;;5030689;28;20049;-87
2022/04/10 00:22:43;;;;;;;22.77;7.10;;;2.10;99.90;;;;;;4999066;28;20309;-86
2022/04/10 00:25:16;;;;;;;19.75;6.22;;;2.10;99.90;;;;;;5015176;28;20199;-86
2022/04/10 00:27:44;;;;;;;16.48;4.28;;;2.00;99.90;;;;;;5031423;28;20041;-86
2022/04/10 00:30:16;;;;;;;12.85;4.35;;;2.00;99.90;;;;;;5011740;28;20069;-87
2022/04/10 00:32:44;;;;;;;17.40;4.00;;;2.00;99.90;;;;;;5001963;28;20192;-86
2022/04/10 00:35:16;;;;;;;17.58;3.70;;;2.00;99.90;;;;;;5030840;28;20049;-86
2022/04/10 00:37:44;;;;;;;14.50;3.25;;;2.00;99.90;;;;;;5015168;28;20131;-87
2022/04/10 00:40:13;;;;;;;18.35;3.20;;;2.10;99.90;;;;;;4998128;28;20132;-87
2022/04/10 00:42:47;;;;;;;15.10;2.95;;;2.00;99.90;;;;;;5031211;28;20057;-86
2022/04/10 00:45:16;;;;;;;13.40;3.30;;;2.00;99.90;;;;;;5017968;28;20103;-87
2022/04/10 00:47:45;;;;;;;20.92;3.20;;;1.90;99.90;;;;;;5014512;28;20060;-87
2022/04/10 00:50:14;;;;;;;17.67;2.95;;;2.00;99.90;;;;;;5014169;28;20049;-88
2022/04/10 00:52:46;;;;;;;16.17;2.88;;;2.00;99.90;;;;;;5033263;28;20050;-87
2022/04/10 00:55:14;;;;;;;16.80;2.90;;;2.00;99.90;;;;;;5017010;28;20049;-87
2022/04/10 00:57:40;;;;;;;15.23;2.33;;;2.00;99.90;;;;;;5033989;28;20053;-86
2022/04/10 01:00:12;;;;;;;18.73;3.97;;;2.00;99.90;;;;;;5017168;28;20367;-90
2022/04/10 01:02:39;;;;;;;11.45;2.30;;;2.00;99.90;;;;;;5001304;28;20052;-87
2022/04/10 01:05:05;;;;;;;14.30;2.60;;;2.10;99.90;;;;;;5016466;28;20127;-87
2022/04/10 01:07:34;;;;;;;14.25;2.03;;;2.10;99.90;;;;;;5017855;28;20049;-87
2022/04/10 01:10:00;;;;;;;9.60;2.13;;;2.10;99.90;;;;;;5033575;28;20056;-90
2022/04/10 01:12:26;;;;;;;11.38;2.40;;;2.00;99.90;;;;;;5033699;28;20041;-87
2022/04/10 01:14:54;;;;;;;11.05;2.13;;;2.00;99.90;;;;;;5017499;28;20124;-87
2022/04/10 01:17:35;;;;;;;18.85;2.53;;;2.00;99.90;;;;;;5016935;28;20302;-88
2022/04/10 01:20:03;;;;;;;15.63;2.25;;;2.00;99.90;;;;;;5017578;28;20053;-91
2022/04/10 01:22:35;;;;;;;10.45;2.35;;;1.90;99.90;;;;;;5017805;28;20053;-90
2022/04/10 01:25:06;;;;;;;14.80;2.70;;;2.00;99.90;;;;;;5016337;28;20041;-91
2022/04/10 01:27:47;;;;;;;14.00;2.28;;;1.90;99.90;;;;;;5033893;28;20041;-87
2022/04/10 01:30:16;;;;;;;17.95;2.55;;;1.90;99.90;;;;;;5017215;28;20053;-87
2022/04/10 01:32:49;;;;;;;17.85;3.22;;;1.90;99.90;;;;;;5033870;28;20060;-88
2022/04/10 01:35:15;;;;;;;16.50;2.15;;;1.90;99.90;;;;;;5033276;28;20495;-87
2022/04/10 01:37:44;;;;;;;13.45;2.55;;;1.80;99.90;;;;;;5033720;28;20124;-86
2022/04/10 01:40:22;;;;;;;14.82;2.78;;;1.80;99.90;;;;;;5033442;28;20049;-86
2022/04/10 01:42:48;;;;;;;16.83;2.83;;;1.80;99.90;;;;;;5017509;28;20045;-87
2022/04/10 01:45:13;;;;;;;18.83;2.63;;;1.80;99.90;;;;;;5015512;28;20053;-87
2022/04/10 01:47:39;;;;;;;18.77;2.75;;;1.90;99.90;;;;;;5016118;28;20479;-86
2022/04/10 01:50:05;;;;;;;15.18;2.40;;;1.80;99.90;;;;;;5015254;28;20049;-91
2022/04/10 01:52:36;;;;;;;19.60;3.03;;;1.80;99.90;;;;;;5015566;28;20124;-86
2022/04/10 01:55:02;;;;;;;11.75;2.38;;;1.70;99.90;;;;;;5032933;28;20045;-87
2022/04/10 01:57:28;;;;;;;7.22;2.00;;;1.70;99.90;;;;;;5030289;28;20533;-87
2022/04/10 01:59:54;;;;;;;11.98;2.20;;;1.70;99.90;;;;;;5032361;28;20176;-86
2022/04/10 02:02:22;;;;;;;16.33;3.55;;;1.70;99.90;;;;;;4999571;28;20787;-87
2022/04/10 02:04:48;;;;;;;20.15;2.45;;;1.60;99.90;;;;;;5017382;28;20038;-86
2022/04/10 02:07:16;;;;;;;14.75;2.70;;;1.60;99.90;;;;;;5033153;28;20376;-86
2022/04/10 02:09:42;;;;;;;16.77;2.67;;;1.60;99.90;;;;;;5015745;28;20057;-86
2022/04/10 02:12:08;;;;;;;21.95;4.95;;;1.60;99.90;;;;;;5033033;28;20179;-88
2022/04/10 02:14:36;;;;;;;21.88;3.67;;;1.80;99.90;;;;;;5015860;28;20045;-86
2022/04/10 02:17:05;;;;;;;14.05;2.92;;;1.60;99.90;;;;;;5015114;28;20060;-88
2022/04/10 02:19:39;;;;;;;15.13;2.72;;;1.60;99.90;;;;;;5015759;28;20214;-87
2022/04/10 02:22:04;;;;;;;15.07;2.50;;;1.60;99.90;;;;;;5032790;28;20042;-86
2022/04/10 02:24:37;;;;;;;17.38;3.10;;;1.80;99.90;;;;;;4999246;28;20048;-87
2022/04/10 02:27:03;;;;;;;16.45;2.50;;;1.60;99.90;;;;;;5032900;28;20053;-86
2022/04/10 02:29:29;;;;;;;19.45;4.00;;;1.60;99.90;;;;;;5015896;28;20052;-87
2022/04/10 02:31:55;;;;;;;16.35;3.17;;;1.60;99.90;;;;;;5016464;28;20045;-86
2022/04/10 02:34:27;;;;;;;15.30;2.85;;;1.60;99.90;;;;;;5015424;28;20041;-87
2022/04/10 02:36:56;;;;;;;16.88;3.15;;;1.70;99.90;;;;;;5030541;28;20049;-86
2022/04/10 02:39:24;;;;;;;16.77;2.42;;;1.70;99.90;;;;;;5018023;28;20124;-86
2022/04/10 02:41:55;;;;;;;20.23;3.13;;;1.60;99.90;;;;;;5033081;28;20045;-87
2022/04/10 02:44:28;;;;;;;18.52;2.83;;;1.60;99.90;;;;;;5024134;28;20041;-87
2022/04/10 02:46:54;;;;;;;18.30;2.67;;;1.60;99.90;;;;;;5019008;28;20075;-86
2022/04/10 02:49:27;;;;;;;16.15;2.60;;;1.60;99.90;;;;;;5018444;28;20053;-86
2022/04/10 02:51:55;;;;;;;13.02;1.88;;;1.70;99.90;;;;;;5016198;28;20041;-87
2022/04/10 02:54:26;;;;;;;17.50;2.80;;;1.70;99.90;;;;;;5014240;28;20095;-87
2022/04/10 02:56:54;;;;;;;16.98;2.97;;;1.90;99.90;;;;;;5029035;28;20045;-87
2022/04/10 02:59:21;;;;;;;11.90;2.53;;;2.00;99.90;;;;;;5030976;28;20057;-87
2022/04/10 03:01:55;;;;;;;15.38;2.38;;;2.10;99.90;;;;;;5022434;28;20046;-87
2022/04/10 03:04:23;;;;;;;11.98;2.05;;;2.30;99.90;;;;;;5014577;28;20060;-87
2022/04/10 03:06:49;;;;;;;14.18;2.60;;;2.50;99.90;;;;;;5015716;28;20096;-88
2022/04/10 03:09:14;;;;;;;7.18;2.10;;;2.50;99.90;;;;;;5027157;28;20513;-87
2022/04/10 03:11:42;;;;;;;15.55;3.08;;;2.50;99.90;;;;;;4999541;28;20053;-86
2022/04/10 03:14:14;;;;;;;18.75;2.80;;;2.50;99.90;;;;;;5015748;28;20064;-89
2022/04/10 03:16:40;;;;;;;14.55;2.50;;;2.50;99.90;;;;;;5019341;28;20174;-85
2022/04/10 03:19:06;;;;;;;16.75;3.00;;;2.50;99.90;;;;;;5054769;28;20541;-86
2022/04/10 03:21:32;;;;;;;10.23;2.00;;;2.50;99.90;;;;;;5018928;28;20179;-86
2022/04/10 03:23:57;;;;;;;13.20;2.78;;;2.60;99.90;;;;;;5034932;28;20045;-86
2022/04/10 03:26:23;;;;;;;6.18;2.05;;;2.80;99.90;;;;;;5034510;28;20052;-86
2022/04/10 03:28:49;;;;;;;14.00;2.92;;;2.70;99.90;;;;;;5000122;28;20041;-86
2022/04/10 03:31:14;;;;;;;12.57;2.30;;;2.70;99.90;;;;;;5017436;28;20040;-86
2022/04/10 03:33:50;;;;;;;9.38;2.13;;;2.80;99.90;;;;;;5001487;28;20040;-86
2022/04/10 03:36:16;;;;;;;12.50;2.25;;;2.80;99.90;;;;;;5034006;28;20110;-87
2022/04/10 03:38:45;;;;;;;15.48;2.17;;;2.90;99.90;;;;;;5017948;28;20060;-86
2022/04/10 03:41:13;;;;;;;10.80;1.98;;;2.90;99.90;;;;;;5017737;28;20045;-86
2022/04/10 03:43:45;;;;;;;12.65;2.00;;;2.90;99.90;;;;;;5025511;28;20048;-86
2022/04/10 03:46:11;;;;;;;13.30;2.85;;;2.90;99.90;;;;;;5008466;28;20056;-86
2022/04/10 03:48:36;;;;;;;9.43;1.85;;;2.80;99.90;;;;;;5017723;28;20525;-86
2022/04/10 03:51:05;;;;;;;13.73;1.98;;;2.70;99.90;;;;;;5030422;28;20048;-87
2022/04/10 03:53:34;;;;;;;10.90;2.70;;;2.70;99.90;;;;;;5033638;28;20045;-86
2022/04/10 03:56:05;;;;;;;8.32;1.58;;;2.70;99.90;;;;;;5034379;28;20125;-86
2022/04/10 03:58:31;;;;;;;7.88;1.27;;;2.80;99.90;;;;;;5018090;28;20102;-87
2022/04/10 04:00:57;;;;;;;7.75;1.35;;;2.80;99.90;;;;;;5034696;28;20045;-87
2022/04/10 04:03:25;;;;;;;5.93;1.20;;;2.80;99.90;;;;;;5001807;28;20251;-87
2022/04/10 04:05:58;;;;;;;10.50;1.50;;;2.80;99.90;;;;;;5017947;28;20053;-87
2022/04/10 04:08:27;;;;;;;4.90;1.00;;;2.80;99.90;;;;;;5014320;28;20049;-87
2022/04/10 04:10:55;;;;;;;5.60;1.35;;;2.90;99.90;;;;;;4997852;28;20100;-86
2022/04/10 04:13:23;;;;;;;7.18;1.52;;;2.80;99.90;;;;;;5014556;28;20100;-88
2022/04/10 04:15:49;;;;;;;5.88;1.40;;;2.60;99.90;;;;;;5016262;28;20056;-87
2022/04/10 04:18:15;;;;;;;7.50;1.45;;;2.60;99.90;;;;;;5034800;28;20421;-86
2022/04/10 04:20:46;;;;;;;6.78;1.40;;;2.60;99.90;;;;;;5001064;28;20037;-88
2022/04/10 04:23:15;;;;;;;10.48;1.30;;;2.70;99.90;;;;;;4998329;28;20041;-88
2022/04/10 04:25:43;;;;;;;9.93;1.27;;;2.50;99.90;;;;;;5014385;28;20052;-87
2022/04/10 04:28:09;;;;;;;4.50;0.98;;;2.50;99.90;;;;;;5002182;28;20076;-89
2022/04/10 04:30:35;;;;;;;5.43;0.85;;;2.40;99.90;;;;;;5019214;28;20155;-88
2022/04/10 04:33:08;;;;;;;4.50;0.80;;;2.40;99.90;;;;;;5037872;28;20056;-86
2022/04/10 04:35:36;;;;;;;5.75;1.00;;;2.30;99.90;;;;;;5037716;28;20109;-87
2022/04/10 04:38:05;;;;;;;4.38;0.80;;;2.30;99.90;;;;;;5037883;28;20716;-86
2022/04/10 04:40:35;;;;;;;5.65;0.80;;;2.30;99.90;;;;;;5019151;28;20052;-87
2022/04/10 04:43:01;;;;;;;5.53;0.93;;;2.10;99.90;;;;;;5019860;28;20049;-87
2022/04/10 04:45:27;;;;;;;4.68;0.95;;;2.20;99.90;;;;;;5038061;28;20047;-86
2022/04/10 04:47:56;;;;;;;5.05;1.10;;;2.20;99.90;;;;;;5037962;28;20402;-88
2022/04/10 04:50:24;;;;;;;3.58;1.05;;;2.10;99.90;;;;;;5021445;28;20084;-87
2022/04/10 04:52:53;;;;;;;3.95;1.15;;;2.10;99.90;;;;;;5037269;28;20547;-86
2022/04/10 04:55:18;;;;;;;4.78;1.30;;;2.10;99.90;;;;;;5037537;28;20124;-88
2022/04/10 04:57:44;;;;;;;7.25;1.02;;;2.10;99.90;;;;;;5021485;28;20124;-86
2022/04/10 05:00:11;;;;;;;5.40;1.33;;;2.10;99.90;;;;;;5021275;28;20491;-89
2022/04/10 05:02:37;;;;;;;7.07;1.30;;;2.00;99.90;;;;;;5020640;28;20128;-87
2022/04/10 05:05:03;;;;;;;3.80;1.48;;;2.10;99.90;;;;;;5020482;28;20124;-86
2022/04/10 05:07:29;;;;;;;7.50;1.20;;;2.00;99.90;;;;;;5019990;28;20064;-91
2022/04/10 05:09:58;;;;;;;8.15;1.00;;;2.00;99.90;;;;;;5016891;28;20053;-86
2022/04/10 05:12:24;;;;;;;6.03;1.42;;;2.00;99.90;;;;;;5032015;28;20096;-88
2022/04/10 05:15:08;;;;;;;;;;;;;;;;;;;;;
2022/04/10 05:17:37;;;;;;;2.67;0.98;;;2.00;99.90;;;;;;5036784;28;20123;-84
2022/04/10 05:20:05;;;;;;;4.93;1.33;;;2.00;99.90;;;;;;5037718;28;20084;-84
2022/04/10 05:22:30;;;;;;;7.45;1.45;;;2.00;99.90;;;;;;5036881;28;20048;-85
2022/04/10 05:24:56;;;;;;;5.75;1.13;;;2.10;99.90;;;;;;5004065;28;20037;-84
2022/04/10 05:27:22;;;;;;;4.82;1.38;;;2.00;99.90;;;;;;5001052;28;20128;-89
2022/04/10 05:29:48;;;;;;;5.35;0.90;;;2.10;99.90;;;;;;5017368;28;20089;-85
2022/04/10 05:32:16;;;;;;;6.63;1.00;;;2.10;99.90;;;;;;5017585;28;20049;-85
2022/04/10 05:34:45;;;;;;;7.35;1.20;;;2.20;99.90;;;;;;5036691;28;20049;-85
2022/04/10 05:37:18;;;;;;;8.82;1.30;;;2.30;99.90;;;;;;5020140;28;20041;-86
2022/04/10 05:39:44;;;;;;;10.43;1.38;;;2.20;99.90;;;;;;5004429;28;20048;-85
2022/04/10 05:42:12;;;;;;;5.38;1.27;;;2.30;99.90;;;;;;5020345;28;20053;-86
2022/04/10 05:44:38;;;;;;;6.68;2.17;;;2.30;99.90;;;;;;5035734;28;20091;-87
2022/04/10 05:47:04;;;;;;;6.22;1.55;;;2.40;99.90;;;;;;5020421;28;20057;-85
2022/04/10 05:49:39;;;;;;;8.45;1.52;;;2.50;99.90;;;;;;4987663;28;20136;-87
2022/04/10 05:52:07;;;;;;;6.20;1.50;;;2.60;99.90;;;;;;5031155;28;20440;-84
2022/04/10 05:54:35;;;;;;;6.15;1.60;;;2.70;99.90;;;;;;5000647;28;20387;-89
2022/04/10 05:57:01;;;;;;;4.18;1.30;;;2.80;99.90;;;;;;5019602;28;20086;-85
2022/04/10 05:59:26;;;;;;;8.98;2.38;;;3.00;99.90;;;;;;5020115;28;20044;-91
2022/04/10 06:01:54;;;;;;;12.05;2.28;;;3.00;99.90;;;;;;5035906;28;20045;-83
2022/04/10 06:04:20;;;;;;;7.35;1.73;;;3.10;99.90;;;;;;5001339;28;20065;-86
2022/04/10 06:06:46;;;;;;;8.07;1.52;;;3.20;99.90;;;;;;4987993;28;20100;-85
2022/04/10 06:09:11;;;;;;;7.20;1.25;;;3.30;99.90;;;;;;5019601;28;20045;-87
2022/04/10 06:11:37;;;;;;;14.48;1.77;;;3.50;99.90;;;;;;5018841;28;20049;-87
2022/04/10 06:14:05;;;;;;;7.97;1.50;;;3.70;99.90;;;;;;5019514;28;20603;-87
2022/04/10 06:16:31;;;;;;;8.95;3.08;;;4.10;99.90;;;;;;5002358;28;20053;-87
2022/04/10 06:18:57;;;;;;;7.20;2.10;;;4.40;99.90;;;;;;5019287;28;20045;-88
2022/04/10 06:21:23;;;;;;;4.55;1.40;;;4.20;99.90;;;;;;5019295;28;20064;-84
2022/04/10 06:23:51;;;;;;;8.02;1.58;;;4.00;99.90;;;;;;5002864;28;20040;-86
2022/04/10 06:26:17;;;;;;;5.47;1.38;;;3.80;99.90;;;;;;5019548;28;20053;-87
2022/04/10 06:28:43;;;;;;;8.07;1.98;;;3.70;99.90;;;;;;5034239;28;20123;-85
2022/04/10 06:31:08;;;;;;;7.70;1.85;;;3.50;99.90;;;;;;5026423;28;20690;-86
2022/04/10 06:33:34;;;;;;;8.85;1.77;;;3.40;99.90;;;;;;5013995;28;20096;-87
2022/04/10 06:36:00;;;;;;;8.05;1.88;;;3.40;99.90;;;;;;4998772;28;20067;-88
2022/04/10 06:38:26;;;;;;;4.70;1.48;;;3.40;99.90;;;;;;5015099;28;20079;-86
2022/04/10 06:40:52;;;;;;;10.80;1.52;;;3.50;99.90;;;;;;4995651;28;20488;-88
2022/04/10 06:43:19;;;;;;;5.95;1.55;;;3.50;99.90;;;;;;5010685;28;20120;-87
2022/04/10 06:45:47;;;;;;;7.93;1.50;;;3.50;99.90;;;;;;5028329;28;20077;-90
2022/04/10 06:48:16;;;;;;;8.55;1.73;;;3.50;99.90;;;;;;5015922;28;20053;-86
2022/04/10 06:50:44;;;;;;;7.30;1.23;;;3.50;99.90;;;;;;5015466;28;20080;-89
2022/04/10 06:53:12;;;;;;;10.23;1.65;;;3.50;99.90;;;;;;5037737;28;20048;-92
2022/04/10 06:55:38;;;;;;;6.85;1.85;;;3.60;99.90;;;;;;5026202;28;20045;-88
2022/04/10 06:58:04;;;;;;;8.30;1.50;;;3.70;99.90;;;;;;5013579;28;20044;-88
2022/04/10 07:00:32;;;;;;;4.10;1.48;;;3.80;99.90;;;;;;5005408;28;20151;-91
2022/04/10 07:03:01;;;;;;;10.80;2.53;;;4.00;99.90;;;;;;5025905;28;20486;-86
2022/04/10 07:05:27;;;;;;;7.20;1.83;;;4.20;99.90;;;;;;5013195;28;20037;-85
2022/04/10 07:07:54;;;;;;;8.88;1.90;;;4.40;99.90;;;;;;5027350;28;20049;-87
2022/04/10 07:10:22;;;;;;;8.65;2.10;;;4.50;99.90;;;;;;5010741;28;20053;-89
2022/04/10 07:12:51;;;;;;;8.93;1.60;;;4.60;99.90;;;;;;5029315;28;20485;-84
2022/04/10 07:15:18;;;;;;;5.32;1.33;;;4.60;99.90;;;;;;4980748;28;20103;-88
2022/04/10 07:17:44;;;;;;;5.13;1.70;;;4.50;99.90;;;;;;5012391;28;20049;-85
2022/04/10 07:20:10;;;;;;;7.47;1.45;;;4.50;99.90;;;;;;4980606;28;20107;-88
2022/04/10 07:25:22;;;;;;;5.60;1.52;;;4.30;99.90;;;;;;5012884;28;20494;-85
2022/04/10 07:27:48;;;;;;;12.48;1.92;;;4.00;99.90;;;;;;4996317;28;20045;-85
2022/04/10 07:30:13;;;;;;;7.80;1.88;;;4.00;99.90;;;;;;4980503;28;20053;-85
2022/04/10 07:32:39;;;;;;;5.85;1.88;;;4.00;99.90;;;;;;4996373;28;20046;-86
2022/04/10 07:35:05;;;;;;;9.13;2.47;;;4.10;99.90;;;;;;5012914;28;20094;-86
2022/04/10 07:37:32;;;;;;;13.63;2.58;;;4.10;99.90;;;;;;5012558;28;20475;-85
2022/04/10 07:39:58;;;;;;;7.82;2.20;;;4.30;99.90;;;;;;5012586;28;20564;-86
2022/04/10 07:42:23;;;;;;;7.63;1.77;;;4.60;99.90;;;;;;5012938;28;20053;-85
2022/04/10 07:44:49;;;;;;;11.20;3.75;;;4.70;99.90;;;;;;5030557;28;20048;-87
2022/04/10 07:47:27;;;;;;;10.23;4.45;;;4.60;99.90;;;;;;5035945;28;20409;-85
2022/04/10 07:49:55;;;;;;;10.43;2.30;;;4.70;99.90;;;;;;5022380;28;20052;-86
2022/04/10 07:52:22;;;;;;;6.60;2.00;;;4.70;99.90;;;;;;5035549;28;20067;-85
2022/04/10 07:54:48;;;;;;;11.40;2.47;;;4.90;99.90;;;;;;5035675;28;20131;-85
2022/04/10 07:57:16;;;;;;;10.20;2.10;;;4.90;99.90;;;;;;5003083;28;20079;-85
2022/04/10 07:59:45;;;;;;;12.80;2.47;;;5.10;99.90;;;;;;4999542;28;20501;-85
2022/04/10 08:02:11;;;;;;;5.90;2.03;;;5.20;99.90;;;;;;5015933;28;20049;-88
2022/04/10 08:04:37;;;;;;;11.18;1.55;;;5.30;99.90;;;;;;5015325;28;20052;-89
2022/04/10 08:07:03;;;;;;;8.00;1.90;;;5.40;99.90;;;;;;5032453;28;20063;-85
2022/04/10 08:09:32;;;;;;;9.45;1.95;;;5.40;99.90;;;;;;5031942;28;20048;-86
2022/04/10 08:11:58;;;;;;;9.75;2.85;;;5.60;99.90;;;;;;5015179;28;20080;-85
2022/04/10 08:14:23;;;;;;;9.05;1.83;;;5.60;99.90;;;;;;4999818;28;20057;-84
2022/04/10 08:16:49;;;;;;;7.30;1.42;;;5.70;99.90;;;;;;4983139;28;20056;-84
2022/04/10 08:19:15;;;;;;;6.60;2.22;;;5.80;99.90;;;;;;5032581;28;20044;-85
2022/04/10 08:21:41;;;;;;;8.43;2.17;;;5.90;99.90;;;;;;5015841;28;20075;-85
2022/04/10 08:24:09;;;;;;;6.45;1.63;;;6.00;99.90;;;;;;5016139;28;20053;-84
2022/04/10 08:26:34;;;;;;;10.27;1.42;;;6.30;99.90;;;;;;5032169;28;20057;-84
2022/04/10 08:29:00;;;;;;;6.55;1.33;;;6.50;99.90;;;;;;5031880;28;20775;-85
2022/04/10 08:31:28;;;;;;;10.45;2.05;;;6.50;99.90;;;;;;5032541;28;20131;-84
2022/04/10 08:33:54;;;;;;;8.98;1.65;;;6.60;99.90;;;;;;5032191;28;20059;-84
2022/04/10 08:36:20;;;;;;;6.15;1.73;;;6.60;99.90;;;;;;5000075;28;20102;-84
2022/04/10 08:38:47;;;;;;;11.80;2.40;;;6.70;99.90;;;;;;5016029;28;20053;-84
2022/04/10 08:41:13;;;;;;;10.13;2.35;;;6.90;99.90;;;;;;5015786;28;20095;-85
2022/04/10 08:43:39;;;;;;;8.18;2.03;;;7.00;99.90;;;;;;5032297;28;20091;-87
2022/04/10 08:46:06;;;;;;;12.98;3.10;;;7.20;99.90;;;;;;5015939;28;20049;-84
2022/04/10 08:48:32;;;;;;;9.02;1.95;;;7.20;99.90;;;;;;5000090;28;20364;-84
2022/04/10 08:50:59;;;;;;;9.73;1.48;;;7.20;99.90;;;;;;5036894;28;20045;-85
2022/04/10 08:53:26;;;;;;;8.70;2.10;;;7.20;99.90;;;;;;5035572;28;20049;-84
2022/04/10 08:55:52;;;;;;;8.88;2.28;;;7.30;99.90;;;;;;5051896;28;20482;-84
2022/04/10 08:58:18;;;;;;;8.02;2.00;;;7.50;99.90;;;;;;5035526;28;20055;-85
2022/04/10 09:00:44;;;;;;;10.50;2.13;;;7.70;99.90;;;;;;5035080;28;20059;-84
2022/04/10 09:03:11;;;;;;;7.32;1.70;;;8.00;99.90;;;;;;5035253;28;20830;-85
2022/04/10 09:05:45;;;;;;;10.85;1.45;;;8.20;99.90;;;;;;5051982;28;20037;-84
2022/04/10 09:08:13;;;;;;;11.05;1.70;;;8.50;99.90;;;;;;5020249;28;20052;-85
2022/04/10 09:11:08;;;;;;;8.70;1.65;;;8.50;99.90;;;;;;5034835;28;20056;-84
2022/04/10 09:13:46;;;;;;;6.68;1.50;;;8.40;99.90;;;;;;5029769;28;20167;-86
2022/04/10 09:16:17;;;;;;;7.15;1.38;;;8.10;99.90;;;;;;5013641;28;20106;-85
2022/04/10 09:18:46;;;;;;;6.78;1.58;;;8.00;99.90;;;;;;5005737;28;20045;-89
2022/04/10 09:21:12;;;;;;;9.48;1.70;;;8.10;99.90;;;;;;5034202;28;20091;-84
2022/04/10 09:23:38;;;;;;;7.75;1.42;;;8.40;99.90;;;;;;5026942;28;20069;-84
2022/04/10 09:26:04;;;;;;;7.72;1.20;;;8.90;99.90;;;;;;5020518;28;20553;-84
2022/04/10 09:28:41;;;;;;;3.90;1.25;;;9.00;99.90;;;;;;4982495;28;20041;-85
2022/04/10 09:31:31;;;;;;;12.00;1.40;;;8.90;99.90;;;;;;5014553;28;20076;-86
2022/04/10 09:33:59;;;;;;;6.93;1.40;;;8.80;99.90;;;;;;5020639;28;20083;-85
2022/04/10 09:36:36;;;;;;;5.55;1.30;;;9.10;99.90;;;;;;5025649;28;20126;-85
2022/04/10 09:39:05;;;;;;;40.70;17.85;;;9.60;99.90;;;;;;5021785;28;20049;-83
2022/04/10 09:41:31;;;;;;;17.38;5.80;;;9.90;99.90;;;;;;5018012;28;20142;-87
2022/04/10 09:44:13;;;;;;;5.30;1.30;;;10.50;99.90;;;;;;5001819;28;20497;-82
2022/04/10 09:46:40;;;;;;;5.85;1.15;;;11.40;94.10;;;;;;5037232;28;20493;-83
2022/04/10 09:49:17;;;;;;;4.38;1.02;;;12.10;94.50;;;;;;5029381;28;20130;-84
2022/04/10 09:52:11;;;;;;;7.45;1.77;;;12.70;76.90;;;;;;5014962;28;20055;-86
2022/04/10 09:54:41;;;;;;;4.10;0.70;;;13.20;75.10;;;;;;5019187;28;20053;-85
2022/04/10 09:57:12;;;;;;;6.60;1.73;;;13.50;79.30;;;;;;5017763;28;20175;-85
2022/04/10 09:59:42;;;;;;;5.90;1.35;;;14.00;74.60;;;;;;5015939;28;20053;-83
2022/04/10 10:02:07;;;;;;;4.93;1.40;;;14.70;72.80;;;;;;5012708;28;20036;-84
2022/04/10 10:04:35;;;;;;;5.95;1.23;;;15.20;70.90;;;;;;5016774;28;20052;-85
2022/04/10 10:07:08;;;;;;;4.63;1.40;;;15.50;67.30;;;;;;5031229;28;20053;-85
2022/04/10 10:09:35;;;;;;;6.28;0.75;;;15.50;58.40;;;;;;5032319;28;20049;-87
2022/04/10 10:12:02;;;;;;;8.52;1.42;;;15.10;62.90;;;;;;5033726;28;20057;-86
2022/04/10 10:14:33;;;;;;;15.55;3.75;;;14.00;65.00;;;;;;5034087;28;20052;-84
2022/04/10 10:17:00;;;;;;;9.45;1.92;;;12.20;99.90;;;;;;4998578;28;20049;-85
2022/04/10 10:19:34;;;;;;;12.88;1.98;;;10.40;99.90;;;;;;5018921;28;20158;-85
2022/04/10 10:22:03;;;;;;;11.75;1.83;;;9.00;99.90;;;;;;5017664;28;20102;-85
2022/04/10 10:24:42;;;;;;;8.07;1.85;;;8.30;99.90;;;;;;5034056;28;20083;-84
2022/04/10 10:27:20;;;;;;;10.43;2.05;;;7.90;99.90;;;;;;5032315;28;20041;-85
2022/04/10 10:30:10;;;;;;;9.15;2.05;;;8.30;99.90;;;;;;5033138;28;20402;-86
2022/04/10 10:32:50;;;;;;;5.47;1.40;;;9.40;99.90;;;;;;5016072;28;20037;-86
2022/04/10 10:35:34;;;;;;;5.45;1.30;;;11.10;99.90;;;;;;5010486;28;20052;-88
2022/04/10 10:38:00;;;;;;;7.22;1.45;;;12.70;99.90;;;;;;5027238;28;20510;-85
2022/04/10 10:40:27;;;;;;;12.23;1.80;;;13.80;99.90;;;;;;5033240;28;20037;-85
2022/04/10 10:42:58;;;;;;;8.43;1.50;;;14.50;99.90;;;;;;5013058;28;20392;-87
2022/04/10 10:45:36;;;;;;;5.30;1.20;;;15.20;89.80;;;;;;5034450;28;20483;-85
2022/04/10 10:48:34;;;;;;;11.40;2.03;;;15.60;80.40;;;;;;5017628;28;20099;-85
2022/04/10 10:51:02;;;;;;;8.23;1.85;;;14.90;62.90;;;;;;5023371;28;20053;-84
2022/04/10 10:53:47;;;;;;;8.18;1.77;;;14.60;73.60;;;;;;5031508;28;20088;-87
2022/04/10 10:56:19;;;;;;;5.72;2.47;;;14.10;70.90;;;;;;5014632;28;20828;-85
2022/04/10 10:58:47;;;;;;;6.13;1.13;;;13.70;69.50;;;;;;5032100;28;20139;-84
2022/04/10 11:01:23;;;;;;;6.38;1.30;;;14.40;73.90;;;;;;5030552;28;20584;-87
2022/04/10 11:04:05;;;;;;;7.00;1.25;;;13.90;67.70;;;;;;5028565;28;20033;-85
2022/04/10 11:06:41;;;;;;;8.48;1.38;;;13.10;73.60;;;;;;5029469;28;20040;-86
2022/04/10 11:09:33;;;;;;;10.05;1.50;;;13.40;82.50;;;;;;5011712;28;20114;-86
2022/04/10 11:12:00;;;;;;;8.10;1.40;;;14.70;74.60;;;;;;5023334;28;20049;-88
2022/04/10 11:14:39;;;;;;;7.75;2.40;;;15.40;70.40;;;;;;4999898;28;20041;-84
2022/04/10 11:17:18;;;;;;;4.95;1.50;;;16.20;64.60;;;;;;5031220;28;20170;-85
2022/04/10 11:19:49;;;;;;;4.63;1.10;;;16.40;62.50;;;;;;5031984;28;20049;-84
2022/04/10 11:22:21;;;;;;;6.95;1.35;;;17.00;62.00;;;;;;5014149;28;20102;-85
2022/04/10 11:24:54;;;;;;;4.78;1.27;;;17.70;57.00;;;;;;5031950;28;20048;-89
2022/04/10 11:27:50;;;;;;;7.60;1.45;;;17.40;55.70;;;;;;5014291;28;20041;-86
2022/04/10 11:30:37;;;;;;;5.90;1.75;;;17.60;49.10;;;;;;5023574;28;20057;-88
2022/04/10 11:33:05;;;;;;;5.82;1.65;;;17.30;51.90;;;;;;5013660;28;20049;-84
2022/04/10 11:35:35;;;;;;;6.57;1.52;;;15.90;56.90;;;;;;5027599;28;20506;-85
2022/04/10 11:38:02;;;;;;;12.23;2.53;;;15.10;61.20;;;;;;5031507;28;20045;-85
2022/04/10 11:40:31;;;;;;;6.65;1.40;;;14.40;63.80;;;;;;5014671;28;20118;-86
2022/04/10 11:42:59;;;;;;;9.30;2.75;;;13.10;65.30;;;;;;5029820;28;20106;-89
2022/04/10 11:45:27;;;;;;;10.07;1.63;;;13.20;72.00;;;;;;5028238;28;20524;-85
2022/04/10 11:47:53;;;;;;;11.00;3.83;;;13.10;68.10;;;;;;5013334;28;20044;-84
2022/04/10 11:50:23;;;;;;;17.42;7.68;;;13.30;67.80;;;;;;5012971;28;20067;-87
2022/04/10 11:52:56;;;;;;;46.00;21.63;;;13.20;64.20;;;;;;5013402;28;20068;-85
2022/04/10 11:55:38;;;;;;;173.43;66.72;;;13.10;62.60;;;;;;5011169;28;20441;-85
2022/04/10 11:58:15;;;;;;;18.55;7.35;;;12.60;62.30;;;;;;5025944;28;20115;-87
2022/04/10 12:00:59;;;;;;;7.72;2.13;;;12.30;67.20;;;;;;5030104;28;20057;-85
2022/04/10 12:03:27;;;;;;;5.78;1.15;;;12.10;66.60;;;;;;5030596;28;20398;-86
2022/04/10 12:05:54;;;;;;;8.90;1.33;;;12.10;69.40;;;;;;5031696;28;20148;-83
2022/04/10 12:08:21;;;;;;;6.30;1.35;;;12.00;69.70;;;;;;5026199;28;20037;-87
2022/04/10 12:10:56;;;;;;;5.95;2.85;;;11.80;73.60;;;;;;5010069;28;20061;-85
2022/04/10 12:13:31;;;;;;;5.65;1.45;;;12.00;74.70;;;;;;5012025;28;20056;-84
2022/04/10 12:16:10;;;;;;;9.85;1.75;;;11.80;76.40;;;;;;5029039;28;20132;-85
2022/04/10 12:18:48;;;;;;;12.05;2.78;;;11.30;80.10;;;;;;5029820;28;20135;-86
2022/04/10 12:21:14;;;;;;;9.10;2.20;;;10.90;81.90;;;;;;5028432;28;20292;-85
2022/04/10 12:23:40;;;;;;;8.75;2.45;;;11.40;87.60;;;;;;5030628;28;20458;-86
2022/04/10 12:26:06;;;;;;;8.23;2.20;;;13.10;74.70;;;;;;5013985;28;20547;-87
2022/04/10 12:28:32;;;;;;;8.75;1.98;;;14.40;64.00;;;;;;5014825;28;20053;-88
2022/04/10 12:31:01;;;;;;;5.00;1.70;;;15.40;59.40;;;;;;5014012;28;20091;-86
2022/04/10 12:33:28;;;;;;;6.80;1.63;;;16.40;55.40;;;;;;5031285;28;20080;-84
2022/04/10 12:35:54;;;;;;;5.68;1.83;;;17.10;52.20;;;;;;5013862;28;20047;-84
2022/04/10 12:38:20;;;;;;;6.65;1.33;;;15.90;52.10;;;;;;4996299;28;20037;-86
2022/04/10 12:40:46;;;;;;;2.78;1.00;;;14.40;54.40;;;;;;5029549;28;20044;-91
2022/04/10 12:43:12;;;;;;;2.88;1.35;;;14.40;58.90;;;;;;5011949;28;20195;-87
2022/04/10 12:45:40;;;;;;;5.50;1.58;;;15.70;58.00;;;;;;5025848;28;20049;-87
2022/04/10 12:48:23;;;;;;;4.75;1.17;;;17.10;52.30;;;;;;5003914;28;20386;-85
2022/04/10 12:51:06;;;;;;;6.35;2.08;;;18.50;48.20;;;;;;5035327;28;20046;-86
2022/04/10 12:53:32;;;;;;;6.32;1.65;;;18.80;45.70;;;;;;5050639;28;20037;-88
2022/04/10 12:55:58;;;;;;;6.05;1.13;;;17.70;49.00;;;;;;5031217;28;20044;-89
2022/04/10 12:58:28;;;;;;;5.53;1.15;;;16.20;50.80;;;;;;5015995;28;20075;-90
2022/04/10 13:00:55;;;;;;;5.88;1.92;;;15.30;53.70;;;;;;5017430;28;20055;-87
2022/04/10 13:03:29;;;;;;;4.68;1.20;;;14.60;54.50;;;;;;5032736;28;20048;-87